KMRT

Union County Airport

Marysville, Ohio, USA
METAR KMRT 271155Z AUTO 00000KT 5SM CLR 20/19 A2993 RMK AO2 70025 T01960192 10200 20185
Observed Flight Rules
May-27 @ 11:55 UTC (7 minutes ago) Marginal Visual Flight Rules
Visibility Clouds
5 miles
  • Clear skies
Temperatures Readings
Current 20°C / 68°F
Dewpoint 19°C / 66°F
Humidity 94%
Altimeter 29.93" Hg
Pressure 1014 hPa
Elevation 312
METAR KMRT 271155Z AUTO 00000KT 5SM CLR 20/19 A2993 RMK AO2 70025 T01960192 10200 20185
Observed Flight Rules
May-27 @ 11:55 UTC
(7 minutes ago)
MVFR
Clouds
  • Clear skies
Temperature Dewpoint
20°C / 68°F 19°C / 66°F
Humidity Altimeter Pressure
94% 29.93" Hg 1014 hPa